createdAt,value
2023-10-29T00:00:58.362Z,100103.53
2023-10-29T00:04:01.592Z,100105.41
2023-10-29T00:07:05.066Z,100099.31
2023-10-29T00:10:08.333Z,100092.88
2023-10-29T00:13:11.182Z,100104.22
2023-10-29T00:16:14.438Z,100104.41
2023-10-29T00:19:17.044Z,100104.25
2023-10-29T00:22:19.992Z,100111.37
2023-10-29T00:25:23.433Z,100113.03
2023-10-29T00:28:28.920Z,100113.72
2023-10-29T00:31:31.582Z,100115.06
2023-10-29T00:34:34.542Z,100114.78
2023-10-29T00:37:37.324Z,100111.87
2023-10-29T00:40:40.823Z,100118.13
2023-10-29T00:43:43.838Z,100114.56
2023-10-29T00:46:47.060Z,100110.16
2023-10-29T00:49:49.694Z,100114.28
2023-10-29T00:52:52.926Z,100103.12
2023-10-29T00:55:55.868Z,100106.50
2023-10-29T00:58:58.573Z,100104.91
2023-10-29T01:02:01.280Z,100109.16
2023-10-29T01:05:06.164Z,100105.84
2023-10-29T01:08:09.154Z,100097.09
2023-10-29T01:11:11.913Z,100098.03
2023-10-29T01:14:14.685Z,100095.22
2023-10-29T01:17:17.799Z,100085.06
2023-10-29T01:20:20.751Z,100086.97
2023-10-29T01:23:24.539Z,100078.25
2023-10-29T01:26:27.435Z,100077.47
2023-10-29T01:29:31.019Z,100086.22
2023-10-29T01:32:34.048Z,100084.59
2023-10-29T01:35:37.190Z,100094.94
2023-10-29T01:38:39.916Z,100086.09
2023-10-29T01:41:42.629Z,100105.28
2023-10-29T01:44:45.533Z,100108.72
2023-10-29T01:47:48.447Z,100118.84
2023-10-29T01:50:51.645Z,100104.56
2023-10-29T01:53:54.412Z,100113.19
2023-10-29T01:56:56.902Z,100115.13
2023-10-29T02:00:00.428Z,100117.63
2023-10-29T02:03:03.077Z,100118.56
2023-10-29T02:06:16.961Z,100120.31
2023-10-29T02:09:19.930Z,100123.88
2023-10-29T02:12:22.701Z,100132.97
2023-10-29T02:15:29.966Z,100135.44
2023-10-29T02:18:32.455Z,100134.38
2023-10-29T02:21:36.007Z,100126.31
2023-10-29T02:24:38.741Z,100128.06
2023-10-29T02:27:42.232Z,100130.44
2023-10-29T02:30:44.641Z,100136.16
2023-10-29T02:33:47.922Z,100134.31
2023-10-29T02:36:51.684Z,100141.28
2023-10-29T02:39:55.497Z,100131.72
2023-10-29T02:42:58.069Z,100135.97
2023-10-29T02:46:01.603Z,100135.97
2023-10-29T02:49:04.256Z,100141.28
2023-10-29T02:52:07.667Z,100138.63
2023-10-29T02:55:10.367Z,100140.88
2023-10-29T02:58:14.017Z,100130.38
2023-10-29T03:01:17.347Z,100133.03
2023-10-29T03:04:20.533Z,100131.44
2023-10-29T03:07:23.781Z,100128.59
2023-10-29T03:10:26.978Z,100127.59
2023-10-29T03:13:30.429Z,100137.97
2023-10-29T03:16:33.375Z,100139.47
2023-10-29T03:19:35.789Z,100133.66
2023-10-29T03:22:38.894Z,100142.81
2023-10-29T03:25:41.609Z,100139.16
2023-10-29T03:28:44.413Z,100142.94
2023-10-29T03:31:47.178Z,100139.78
2023-10-29T03:34:49.919Z,100144.97
2023-10-29T03:37:52.313Z,100147.44
2023-10-29T03:40:55.276Z,100143.78
2023-10-29T03:43:58.253Z,100138.59
2023-10-29T03:47:01.225Z,100147.81
2023-10-29T03:50:04.152Z,100137.72
2023-10-29T03:53:07.992Z,100136.19
2023-10-29T03:56:10.726Z,100131.94
2023-10-29T03:59:13.703Z,100136.88
2023-10-29T04:02:16.337Z,100130.75
2023-10-29T04:05:19.322Z,100133.16
2023-10-29T04:08:22.088Z,100109.69
2023-10-29T04:11:24.833Z,100115.75
2023-10-29T04:14:27.419Z,100116.38
2023-10-29T04:17:30.699Z,100119.75
2023-10-29T04:20:33.388Z,100116.91
2023-10-29T04:23:37.777Z,100125.00
2023-10-29T04:26:40.654Z,100126.81
2023-10-29T04:29:43.680Z,100131.25
2023-10-29T04:32:46.251Z,100128.72
2023-10-29T04:35:49.092Z,100133.78
2023-10-29T04:38:52.202Z,100144.47
2023-10-29T04:41:55.127Z,100129.69
2023-10-29T04:44:57.657Z,100138.59
2023-10-29T04:48:00.494Z,100137.84
2023-10-29T04:51:03.300Z,100138.59
2023-10-29T04:54:06.404Z,100133.28
2023-10-29T04:57:08.886Z,100146.81
2023-10-29T05:00:12.209Z,100151.00
2023-10-29T05:03:14.797Z,100142.88
2023-10-29T05:06:21.891Z,100152.31
2023-10-29T05:09:24.583Z,100142.69
2023-10-29T05:12:27.662Z,100145.22
2023-10-29T05:15:31.091Z,100151.22
2023-10-29T05:18:34.213Z,100153.81
2023-10-29T05:21:36.947Z,100140.72
2023-10-29T05:24:39.939Z,100148.44
2023-10-29T05:27:56.258Z,100148.44
2023-10-29T05:30:59.290Z,100153.69
2023-10-29T05:34:02.582Z,100153.88
2023-10-29T05:37:05.336Z,100160.16
2023-10-29T05:40:10.821Z,100151.50
2023-10-29T05:43:13.778Z,100163.06
2023-10-29T05:46:17.230Z,100166.03
2023-10-29T05:49:20.024Z,100166.81
2023-10-29T05:52:22.852Z,100178.38
2023-10-29T05:55:26.063Z,100180.47
2023-10-29T05:58:28.553Z,100180.78
2023-10-29T06:01:31.397Z,100181.91
2023-10-29T06:04:34.214Z,100187.66
2023-10-29T06:07:38.399Z,100184.91
2023-10-29T06:10:41.420Z,100177.41
2023-10-29T06:13:45.662Z,100189.47
2023-10-29T06:16:48.725Z,100187.03
2023-10-29T06:19:51.518Z,100189.19
2023-10-29T06:22:54.526Z,100203.63
2023-10-29T06:25:57.007Z,100190.94
2023-10-29T06:28:59.976Z,100191.66
2023-10-29T06:32:02.700Z,100192.06
2023-10-29T06:35:06.110Z,100197.75
2023-10-29T06:38:08.637Z,100193.22
2023-10-29T06:41:11.580Z,100186.91
2023-10-29T06:44:14.263Z,100181.38
2023-10-29T06:47:16.997Z,100195.94
2023-10-29T06:50:19.765Z,100186.16
2023-10-29T06:53:22.830Z,100194.38
2023-10-29T06:56:25.585Z,100204.09
2023-10-29T06:59:31.898Z,100198.88
2023-10-29T07:02:34.754Z,100207.75
2023-10-29T07:05:50.608Z,100211.62
2023-10-29T07:09:06.375Z,100212.09
2023-10-29T07:12:09.243Z,100209.72
2023-10-29T07:15:14.677Z,100208.78
2023-10-29T07:18:17.718Z,100211.34
2023-10-29T07:21:20.705Z,100203.78
2023-10-29T07:24:23.191Z,100200.28
2023-10-29T07:27:25.941Z,100199.28
2023-10-29T07:30:28.918Z,100192.34
2023-10-29T07:33:31.820Z,100196.53
2023-10-29T07:36:34.648Z,100197.75
2023-10-29T07:39:38.060Z,100195.09
2023-10-29T07:42:40.745Z,100191.75
2023-10-29T07:45:43.465Z,100175.31
2023-10-29T07:48:45.880Z,100189.16
2023-10-29T07:51:52.023Z,100189.16
2023-10-29T07:54:54.672Z,100187.28
2023-10-29T07:57:57.482Z,100186.09
2023-10-29T08:01:03.210Z,100187.50
2023-10-29T08:04:06.233Z,100188.34
2023-10-29T08:07:08.859Z,100175.59
2023-10-29T08:10:12.840Z,100174.69
2023-10-29T08:13:15.533Z,100174.50
2023-10-29T08:16:21.777Z,100181.69
2023-10-29T08:20:15.221Z,100181.28
2023-10-29T08:23:23.911Z,100181.56
2023-10-29T08:26:43.911Z,100190.25
2023-10-29T08:29:59.347Z,100184.06
2023-10-29T08:33:24.055Z,100178.41
2023-10-29T08:36:31.859Z,100168.66
2023-10-29T08:39:34.639Z,100181.38
2023-10-29T08:42:48.694Z,100176.00
2023-10-29T08:45:54.422Z,100170.06
2023-10-29T08:48:57.277Z,100169.25
2023-10-29T08:52:00.050Z,100161.94
2023-10-29T08:55:03.224Z,100164.41
2023-10-29T08:58:05.999Z,100174.91
2023-10-29T09:01:12.836Z,100184.25
2023-10-29T09:04:16.344Z,100187.75
2023-10-29T09:07:19.545Z,100178.28
2023-10-29T09:10:22.069Z,100173.00
2023-10-29T09:13:25.251Z,100176.47
2023-10-29T09:16:27.774Z,100168.47
2023-10-29T09:19:30.535Z,100169.41
2023-10-29T09:22:33.880Z,100168.94
2023-10-29T09:25:44.357Z,100162.28
2023-10-29T09:28:54.841Z,100147.81
2023-10-29T09:31:57.927Z,100149.06
2023-10-29T09:35:00.600Z,100148.38
2023-10-29T09:38:04.750Z,100156.63
2023-10-29T09:41:08.747Z,100153.03
2023-10-29T09:44:19.817Z,100157.66
2023-10-29T09:47:24.353Z,100151.19
2023-10-29T09:50:30.132Z,100151.38
2023-10-29T09:53:36.282Z,100143.34
2023-10-29T09:56:40.839Z,100146.63
2023-10-29T09:59:43.291Z,100138.06
2023-10-29T10:02:53.977Z,100139.03
2023-10-29T10:05:58.825Z,100143.41
2023-10-29T10:09:03.411Z,100132.44
2023-10-29T10:12:06.844Z,100122.72
2023-10-29T10:15:10.304Z,100131.97
2023-10-29T10:18:16.096Z,100140.91
2023-10-29T10:21:24.524Z,100133.78
2023-10-29T10:24:49.229Z,100129.34
2023-10-29T10:27:57.052Z,100132.97
2023-10-29T10:31:15.369Z,100127.97
2023-10-29T10:34:19.954Z,100121.75
2023-10-29T10:37:26.068Z,100117.19
2023-10-29T10:40:28.707Z,100104.69
2023-10-29T10:43:31.777Z,100106.88
2023-10-29T10:46:46.945Z,100103.62
2023-10-29T10:49:51.109Z,100117.31
2023-10-29T10:52:54.158Z,100110.16
2023-10-29T10:56:19.458Z,100109.03
2023-10-29T10:59:35.041Z,100106.34
2023-10-29T11:02:42.919Z,100102.56
2023-10-29T11:05:50.068Z,100107.59
2023-10-29T11:08:54.475Z,100104.31
2023-10-29T11:12:03.825Z,100107.12
2023-10-29T11:15:23.868Z,100107.94
2023-10-29T11:22:30.508Z,100100.88
2023-10-29T11:25:38.975Z,100095.69
2023-10-29T11:29:06.744Z,100090.47
2023-10-29T11:32:27.206Z,100093.81
2023-10-29T11:35:36.300Z,100086.81
2023-10-29T11:38:40.470Z,100083.16
2023-10-29T11:41:45.827Z,100097.34
2023-10-29T11:44:48.836Z,100085.25
2023-10-29T11:48:13.327Z,100079.16
2023-10-29T11:51:16.105Z,100082.75
2023-10-29T11:54:19.109Z,100081.09
2023-10-29T11:57:23.892Z,100083.84
2023-10-29T12:00:41.781Z,100075.84
2023-10-29T12:03:51.700Z,100068.09
2023-10-29T12:06:55.797Z,100066.47
2023-10-29T12:10:07.278Z,100063.00
2023-10-29T12:13:13.077Z,100057.69
2023-10-29T12:16:23.515Z,100048.88
2023-10-29T12:19:47.311Z,100055.09
2023-10-29T12:22:56.162Z,100063.06
2023-10-29T12:26:07.292Z,100051.59
2023-10-29T12:29:10.568Z,100049.94
2023-10-29T12:32:20.330Z,100047.47
2023-10-29T12:35:35.416Z,100046.59
2023-10-29T12:38:39.396Z,100043.94
2023-10-29T12:41:42.502Z,100054.41
2023-10-29T12:45:05.670Z,100046.53
2023-10-29T12:48:15.804Z,100045.81
2023-10-29T12:51:24.794Z,100049.47
2023-10-29T12:54:29.026Z,100042.44
2023-10-29T12:57:31.484Z,100053.03
2023-10-29T13:00:46.193Z,100053.06
2023-10-29T13:04:06.466Z,100043.44
2023-10-29T13:07:25.645Z,100042.62
2023-10-29T13:10:28.124Z,100042.62
2023-10-29T13:13:30.960Z,100040.87
2023-10-29T13:16:33.453Z,100037.41
2023-10-29T13:19:39.762Z,100031.22
2023-10-29T13:23:02.118Z,100039.19
2023-10-29T13:26:13.862Z,100037.37
2023-10-29T13:29:26.047Z,100045.34
2023-10-29T13:32:28.787Z,100053.13
2023-10-29T13:35:39.049Z,100051.22
2023-10-29T13:38:44.801Z,100048.44
2023-10-29T13:41:53.017Z,100045.75
2023-10-29T13:44:57.592Z,100043.91
2023-10-29T13:48:08.273Z,100040.37
2023-10-29T13:51:13.772Z,100043.09
2023-10-29T13:54:19.594Z,100030.78
2023-10-29T13:57:24.945Z,100030.06
2023-10-29T14:00:30.655Z,100024.81
2023-10-29T14:03:35.778Z,100031.03
2023-10-29T14:06:38.529Z,100024.97
2023-10-29T14:09:43.860Z,100025.06
2023-10-29T14:12:47.723Z,100028.72
2023-10-29T14:15:50.969Z,100035.03
2023-10-29T14:18:53.922Z,100037.72
2023-10-29T14:21:57.436Z,100037.78
2023-10-29T14:25:02.662Z,100037.75
2023-10-29T14:28:05.781Z,100043.91
2023-10-29T14:31:08.291Z,100038.56
2023-10-29T14:34:11.129Z,100040.41
2023-10-29T14:37:14.487Z,100051.00
2023-10-29T14:40:17.279Z,100039.56
2023-10-29T14:43:22.810Z,100044.88
2023-10-29T14:46:26.086Z,100044.09
2023-10-29T14:49:28.558Z,100044.84
2023-10-29T14:52:31.337Z,100051.16
2023-10-29T14:55:34.366Z,100044.09
2023-10-29T14:58:37.731Z,100037.16
2023-10-29T15:01:41.427Z,100039.91
2023-10-29T15:04:44.587Z,100040.84
2023-10-29T15:07:47.264Z,100035.69
2023-10-29T15:10:54.422Z,100034.81
2023-10-29T15:13:57.140Z,100038.38
2023-10-29T15:16:59.991Z,100038.44
2023-10-29T15:20:04.756Z,100040.22
2023-10-29T15:23:07.783Z,100034.06
2023-10-29T15:26:15.807Z,100037.63
2023-10-29T15:29:18.873Z,100039.41
2023-10-29T15:32:21.351Z,100042.06
2023-10-29T15:35:24.375Z,100040.28
2023-10-29T15:38:26.948Z,100029.75
2023-10-29T15:41:29.761Z,100025.31
2023-10-29T15:44:32.963Z,100023.56
2023-10-29T15:47:36.019Z,100031.47
2023-10-29T15:50:39.018Z,100027.97
2023-10-29T15:53:42.835Z,100031.47
2023-10-29T15:56:46.160Z,100031.47
2023-10-29T15:59:49.896Z,100031.47
2023-10-29T16:02:52.862Z,100052.53
2023-10-29T16:05:55.867Z,100051.59
2023-10-29T16:08:58.680Z,100051.56
2023-10-29T16:12:09.117Z,100059.44
2023-10-29T16:15:12.397Z,100065.56
2023-10-29T16:18:16.040Z,100068.16
2023-10-29T16:21:18.576Z,100062.00
2023-10-29T16:24:21.402Z,100068.97
2023-10-29T16:27:25.932Z,100070.69
2023-10-29T16:30:30.587Z,100074.19
2023-10-29T16:33:33.438Z,100076.69
2023-10-29T16:36:36.719Z,100088.06
2023-10-29T16:39:39.670Z,100078.38
2023-10-29T16:42:42.362Z,100086.31
2023-10-29T16:45:45.890Z,100086.22
2023-10-29T16:48:49.399Z,100090.56
2023-10-29T16:51:56.695Z,100094.03
2023-10-29T16:54:59.408Z,100078.22
2023-10-29T16:58:02.661Z,100087.09
2023-10-29T17:01:06.795Z,100089.78
2023-10-29T17:04:09.343Z,100095.06
2023-10-29T17:07:13.371Z,100089.78
2023-10-29T17:10:16.036Z,100097.75
2023-10-29T17:13:19.103Z,100106.53
2023-10-29T17:16:21.667Z,100102.09
2023-10-29T17:19:24.736Z,100098.69
2023-10-29T17:22:28.993Z,100101.41
2023-10-29T17:25:36.377Z,100103.16
2023-10-29T17:28:40.380Z,100103.19
2023-10-29T17:31:43.380Z,100104.06
2023-10-29T17:34:45.953Z,100106.69
2023-10-29T17:37:49.658Z,100101.41
2023-10-29T17:40:52.393Z,100100.56
2023-10-29T17:43:55.774Z,100101.41
2023-10-29T17:46:59.444Z,100110.19
2023-10-29T17:50:02.239Z,100111.91
2023-10-29T17:53:05.111Z,100114.50
2023-10-29T17:56:07.955Z,100109.09
2023-10-29T17:59:10.679Z,100123.13
2023-10-29T18:02:13.867Z,100121.38
2023-10-29T18:05:16.888Z,100103.81
2023-10-29T18:08:20.575Z,100111.72
2023-10-29T18:11:25.830Z,100108.19
2023-10-29T18:14:28.676Z,100109.03
2023-10-29T18:17:33.128Z,100113.44
2023-10-29T18:20:37.325Z,100116.00
2023-10-29T18:23:40.309Z,100113.31
2023-10-29T18:26:43.358Z,100111.50
2023-10-29T18:29:47.567Z,100115.94
2023-10-29T18:32:50.528Z,100116.81
2023-10-29T18:35:53.681Z,100106.25
2023-10-29T18:38:57.916Z,100101.94
2023-10-29T18:42:01.672Z,100101.00
2023-10-29T18:45:06.205Z,100111.53
2023-10-29T18:48:09.318Z,100099.19
2023-10-29T18:51:12.214Z,100093.00
2023-10-29T18:54:15.231Z,100100.03
2023-10-29T18:57:19.232Z,100104.34
2023-10-29T19:00:22.433Z,100109.50
2023-10-29T19:03:25.435Z,100111.25
2023-10-29T19:06:28.701Z,100104.16
2023-10-29T19:09:35.704Z,100103.28
2023-10-29T19:12:38.944Z,100105.94
2023-10-29T19:15:41.918Z,100103.28
2023-10-29T19:18:44.913Z,100104.16
2023-10-29T19:21:47.688Z,100111.19
2023-10-29T19:24:51.148Z,100111.25
2023-10-29T19:27:54.277Z,100109.62
2023-10-29T19:31:20.499Z,100102.66
2023-10-29T19:34:20.262Z,100099.16
2023-10-29T19:37:23.315Z,100103.59
2023-10-29T19:40:26.364Z,100097.47
2023-10-29T19:43:30.155Z,100098.31
2023-10-29T19:46:33.296Z,100102.63
2023-10-29T19:49:36.730Z,100105.28
2023-10-29T19:52:39.624Z,100107.97
2023-10-29T19:55:42.662Z,100113.19
2023-10-29T19:58:45.746Z,100107.78
2023-10-29T20:01:48.951Z,100105.16
2023-10-29T20:04:53.741Z,100103.38
2023-10-29T20:07:57.117Z,100112.06
2023-10-29T20:11:11.379Z,100100.63
2023-10-29T20:14:14.841Z,100103.25
2023-10-29T20:17:17.906Z,100107.59
2023-10-29T20:20:20.366Z,100113.78
2023-10-29T20:23:24.878Z,100098.06
2023-10-29T20:26:28.904Z,100091.16
2023-10-29T20:29:31.959Z,100095.44
2023-10-29T20:32:35.170Z,100086.66
2023-10-29T20:35:41.772Z,100084.03
2023-10-29T20:38:44.369Z,100078.81
2023-10-29T20:41:47.600Z,100087.56
2023-10-29T20:44:50.564Z,100091.87
2023-10-29T20:47:53.712Z,100093.63
2023-10-29T20:50:56.886Z,100103.31
2023-10-29T20:53:59.952Z,100105.06
2023-10-29T20:57:03.517Z,100110.28
2023-10-29T21:00:07.965Z,100104.09
2023-10-29T21:03:10.824Z,100103.19
2023-10-29T21:06:16.619Z,100101.50
2023-10-29T21:09:19.982Z,100097.06
2023-10-29T21:12:22.797Z,100094.37
2023-10-29T21:15:26.910Z,100089.09
2023-10-29T21:18:30.512Z,100087.34
2023-10-29T21:21:33.312Z,100087.31
2023-10-29T21:24:36.463Z,100075.09
2023-10-29T21:27:39.317Z,100076.84
2023-10-29T21:30:45.352Z,100085.66
2023-10-29T21:33:48.075Z,100088.28
2023-10-29T21:36:50.887Z,100093.50
2023-10-29T21:39:53.808Z,100094.41
2023-10-29T21:42:56.830Z,100094.47
2023-10-29T21:46:09.880Z,100103.16
2023-10-29T21:49:12.817Z,100109.25
2023-10-29T21:52:16.558Z,100115.41
2023-10-29T21:55:20.123Z,100123.28
2023-10-29T21:58:23.167Z,100109.38
2023-10-29T22:01:25.947Z,100119.81
2023-10-29T22:04:31.599Z,100121.50
2023-10-29T22:07:34.153Z,100099.50
2023-10-29T22:10:37.082Z,100103.88
2023-10-29T22:13:40.927Z,100111.66
2023-10-29T22:16:43.710Z,100099.34
2023-10-29T22:19:46.224Z,100100.19
2023-10-29T22:22:49.173Z,100107.28
2023-10-29T22:25:51.861Z,100105.59
2023-10-29T22:28:54.816Z,100103.84
2023-10-29T22:31:57.506Z,100104.75
2023-10-29T22:35:00.311Z,100103.00
2023-10-29T22:38:05.099Z,100102.19
2023-10-29T22:41:12.439Z,100098.72
2023-10-29T22:44:15.054Z,100103.03
2023-10-29T22:47:18.001Z,100102.19
2023-10-29T22:50:20.778Z,100093.53
2023-10-29T22:53:23.780Z,100091.75
2023-10-29T22:56:26.229Z,100092.69
2023-10-29T22:59:28.973Z,100099.66
2023-10-29T23:02:31.430Z,100088.34
2023-10-29T23:05:35.184Z,100085.63
2023-10-29T23:08:37.965Z,100102.28
2023-10-29T23:11:41.004Z,100106.62
2023-10-29T23:14:45.632Z,100103.03
2023-10-29T23:17:48.518Z,100089.13
2023-10-29T23:20:51.449Z,100102.22
2023-10-29T23:23:55.626Z,100092.59
2023-10-29T23:26:58.331Z,100096.94
2023-10-29T23:30:01.124Z,100107.34
2023-10-29T23:33:04.243Z,100102.81
2023-10-29T23:36:07.679Z,100105.44
2023-10-29T23:39:10.882Z,100102.75
2023-10-29T23:42:13.875Z,100105.31
2023-10-29T23:45:16.550Z,100094.84
2023-10-29T23:48:19.331Z,100096.53
2023-10-29T23:51:21.949Z,100099.16
2023-10-29T23:54:24.930Z,100103.50
2023-10-29T23:57:27.911Z,100114.03
